Cape Girardeau Regional Airport


Codes: KCGI/CGI
Name: Cape Girardeau Regional Airport
City: Cape Girardeau
Country: United States
Elevation: 342 ft.
Wikipedia:

Photos at Cape Girardeau Regional Airport


   Photos courtesy of SpottingLog. You can add your own sightings and photos by signing up for a free trial today.



No photos found.

Weather at Cape Girardeau Regional Airport


Time (UTC)DescriptionTempratureWindCloud coverageVisibilityPressureHumidity
21-Feb-2024 03:00Clear Sky9°C7 mph, S0%10000m1023hPa65%
21-Feb-2024 06:00Scattered Clouds9°C7 mph, S31%10000m1023hPa69%
21-Feb-2024 09:00Few Clouds8°C7 mph, S22%10000m1022hPa79%
21-Feb-2024 12:00Broken Clouds7°C7 mph, S51%10000m1021hPa93%
21-Feb-2024 15:00Overcast Clouds11°C13 mph, S100%10000m1020hPa80%
21-Feb-2024 18:00Overcast Clouds16°C18 mph, S100%10000m1017hPa66%
21-Feb-2024 21:00Overcast Clouds17°C16 mph, S100%10000m1013hPa75%
22-Feb-2024 00:00Overcast Clouds17°C16 mph, S100%10000m1012hPa77%
22-Feb-2024 03:00Overcast Clouds16°C18 mph, S100%10000m1010hPa83%
22-Feb-2024 06:00Overcast Clouds15°C16 mph, S100%10000m1010hPa86%
22-Feb-2024 09:00Overcast Clouds14°C16 mph, S100%10000m1007hPa90%
22-Feb-2024 12:00Light Rain14°C18 mph, S100%10000m1006hPa93%
22-Feb-2024 15:00Light Rain14°C13 mph, SW100%10000m1005hPa94%
22-Feb-2024 18:00Light Rain15°C16 mph, SW100%10000m1004hPa88%
22-Feb-2024 21:00Moderate Rain16°C9 mph, W98%5137m1003hPa80%
23-Feb-2024 00:00Light Rain12°C13 mph, N70%10000m1006hPa80%
23-Feb-2024 03:00Clear Sky10°C7 mph, N1%10000m1008hPa87%
23-Feb-2024 06:00Clear Sky9°C7 mph, NW3%10000m1008hPa86%
23-Feb-2024 09:00Clear Sky8°C9 mph, NW0%10000m1009hPa81%
23-Feb-2024 12:00Clear Sky7°C11 mph, NW0%10000m1011hPa84%
23-Feb-2024 15:00Clear Sky9°C13 mph, NW0%10000m1012hPa68%
23-Feb-2024 18:00Clear Sky12°C13 mph, NW1%10000m1012hPa49%
23-Feb-2024 21:00Clear Sky14°C13 mph, NW6%10000m1010hPa39%
24-Feb-2024 00:00Clear Sky10°C7 mph, NW5%10000m1011hPa55%
24-Feb-2024 03:00Scattered Clouds9°C7 mph, W32%10000m1012hPa62%
24-Feb-2024 06:00Broken Clouds8°C7 mph, W61%10000m1011hPa71%
24-Feb-2024 09:00Scattered Clouds7°C9 mph, NW47%10000m1012hPa76%
24-Feb-2024 12:00Scattered Clouds5°C7 mph, NW29%10000m1015hPa85%
24-Feb-2024 15:00Clear Sky8°C11 mph, N6%10000m1018hPa72%
24-Feb-2024 18:00Few Clouds10°C11 mph, N12%10000m1019hPa55%
24-Feb-2024 21:00Clear Sky11°C4 mph, N4%10000m1019hPa50%
25-Feb-2024 00:00Clear Sky8°C4 mph, N3%10000m1019hPa62%
25-Feb-2024 03:00Clear Sky7°C7 mph, SE2%10000m1019hPa71%
25-Feb-2024 06:00Clear Sky6°C9 mph, S1%10000m1018hPa79%
25-Feb-2024 09:00Clear Sky6°C9 mph, S0%10000m1016hPa82%
25-Feb-2024 12:00Clear Sky6°C11 mph, S4%10000m1015hPa80%
25-Feb-2024 15:00Overcast Clouds10°C16 mph, S100%10000m1015hPa71%
25-Feb-2024 18:00Light Rain15°C18 mph, SW100%10000m1013hPa62%
25-Feb-2024 21:00Overcast Clouds17°C20 mph, SW100%10000m1010hPa56%
26-Feb-2024 00:00Overcast Clouds15°C11 mph, SW100%10000m1012hPa64%